createdAt,value
2023-02-11T00:37:06.701Z,5.9
2023-02-11T00:47:08.916Z,5.9
2023-02-11T01:27:18.581Z,6
2023-02-11T01:37:20.557Z,6.1
2023-02-11T02:17:29.509Z,6
2023-02-11T02:27:31.514Z,6
2023-02-11T02:37:33.467Z,6
2023-02-11T02:47:35.180Z,5.9
2023-02-11T02:57:37.447Z,5.9
2023-02-11T03:07:40.072Z,5.9
2023-02-11T03:27:44.071Z,5.8
2023-02-11T03:37:46.356Z,5.7
2023-02-11T03:47:48.756Z,5.7
2023-02-11T03:57:50.821Z,5.7
2023-02-11T04:07:52.712Z,5.6
2023-02-11T04:17:54.784Z,5.5
2023-02-11T04:27:57.277Z,5.5
2023-02-11T04:37:59.417Z,5.4
2023-02-11T04:48:01.203Z,5.4
2023-02-11T05:18:07.790Z,5.2
2023-02-11T05:38:12.598Z,5.2
2023-02-11T06:08:18.928Z,5.2
2023-02-11T06:18:20.979Z,5.2
2023-02-11T06:28:23.196Z,5.2
2023-02-11T06:38:25.262Z,5.3
2023-02-11T06:48:27.292Z,5.2
2023-02-11T06:58:29.042Z,5.3
2023-02-11T07:08:31.689Z,5.3
2023-02-11T07:18:33.857Z,5.3
2023-02-11T07:28:36.516Z,5.3
2023-02-11T07:38:39.082Z,5.3
2023-02-11T07:48:41.260Z,5.4
2023-02-11T07:58:43.210Z,5.4
2023-02-11T08:08:45.010Z,5.5
2023-02-11T08:18:47.307Z,5.5
2023-02-11T08:28:49.472Z,5.6
2023-02-11T08:48:53.895Z,5.7
2023-02-11T08:58:56.091Z,5.8
2023-02-11T09:08:58.457Z,5.8
2023-02-11T09:19:00.583Z,5.9
2023-02-11T09:29:02.756Z,6
2023-02-11T09:39:05.396Z,6.1
2023-02-11T09:49:07.289Z,6.1
2023-02-11T09:59:09.954Z,6.3
2023-02-11T10:09:12.603Z,6.2
2023-02-11T10:19:14.435Z,6.3
2023-02-11T10:29:17.130Z,6.4
2023-02-11T10:39:19.001Z,6.4
2023-02-11T10:49:21.297Z,6.5
2023-02-11T10:59:23.587Z,6.6
2023-02-11T11:09:26.168Z,6.6
2023-02-11T11:19:28.117Z,6.8
2023-02-11T11:39:32.070Z,6.9
2023-02-11T11:49:34.287Z,7
2023-02-11T11:59:36.250Z,7
2023-02-11T12:19:40.518Z,7.1
2023-02-11T12:29:42.403Z,7.3
2023-02-11T12:39:44.344Z,7.5
2023-02-11T12:49:46.444Z,7.5
2023-02-11T12:59:48.581Z,7.4
2023-02-11T13:09:50.615Z,7.5
2023-02-11T13:19:52.636Z,7.5
2023-02-11T13:29:54.930Z,7.6
2023-02-11T13:39:56.664Z,7.7
2023-02-11T13:49:58.750Z,7.9
2023-02-11T14:00:01.161Z,8
2023-02-11T14:10:03.868Z,8
2023-02-11T14:20:05.549Z,8.1
2023-02-11T14:30:07.486Z,8.3
2023-02-11T14:40:09.748Z,8.3
2023-02-11T14:50:11.480Z,8.3
2023-02-11T15:00:13.550Z,8.3
2023-02-11T15:10:16.116Z,8.3
2023-02-11T15:20:18.809Z,8.4
2023-02-11T15:30:21.380Z,8.5
2023-02-11T15:40:23.220Z,8.5
2023-02-11T15:50:25.743Z,8.4
2023-02-11T16:00:28.255Z,8.4
2023-02-11T16:10:30.252Z,8.4
2023-02-11T16:20:32.243Z,8.3
2023-02-11T16:30:34.272Z,8.3
2023-02-11T16:40:36.041Z,8.3
2023-02-11T16:50:37.896Z,8.3
2023-02-11T17:00:40.210Z,8.3
2023-02-11T17:10:41.887Z,8.2
2023-02-11T17:20:43.566Z,8.2
2023-02-11T17:30:45.427Z,8.2
2023-02-11T17:40:47.567Z,8.1
2023-02-11T17:50:49.312Z,8.1
2023-02-11T18:10:53.325Z,7.9
2023-02-11T18:41:00.125Z,7.8
2023-02-11T19:01:05.011Z,7.7
2023-02-11T19:21:09.610Z,7.7
2023-02-11T19:51:16.207Z,7.7
2023-02-11T20:01:18.801Z,7.7
2023-02-11T20:21:22.990Z,7.7
2023-02-11T20:31:25.036Z,7.6
2023-02-11T20:41:26.497Z,7.6
2023-02-11T21:01:31.839Z,7.5
2023-02-11T21:21:35.718Z,7.6
2023-02-11T21:51:42.564Z,7.5
2023-02-11T22:01:45.279Z,7.5
2023-02-11T22:14:26.179Z,7.5
2023-02-11T22:32:02.245Z,7.4
2023-02-11T22:42:04.670Z,7.4
2023-02-11T22:52:06.851Z,7.4
2023-02-11T23:02:08.799Z,7.5
2023-02-11T23:12:10.841Z,7.4
2023-02-11T23:32:15.624Z,7.4
2023-02-11T23:42:17.835Z,7.4
2023-02-11T23:52:19.833Z,7.4
